createdAt,value
2023-03-13T00:00:52.008Z,98287.22
2023-03-13T00:03:19.187Z,98284.63
2023-03-13T00:05:45.999Z,98281.22
2023-03-13T00:08:13.152Z,98272.06
2023-03-13T00:10:40.520Z,98266.19
2023-03-13T00:13:08.029Z,98263.19
2023-03-13T00:15:34.972Z,98269.28
2023-03-13T00:18:02.057Z,98259.44
2023-03-13T00:20:29.604Z,98253.19
2023-03-13T00:22:56.643Z,98255.03
2023-03-13T00:25:23.699Z,98253.31
2023-03-13T00:27:50.790Z,98263.19
2023-03-13T00:30:17.854Z,98256.75
2023-03-13T00:32:46.319Z,98255.97
2023-03-13T00:35:13.696Z,98252.47
2023-03-13T00:37:40.765Z,98241.84
2023-03-13T00:40:08.951Z,98233.56
2023-03-13T00:42:36.374Z,98231.97
2023-03-13T00:45:03.736Z,98227.38
2023-03-13T00:47:30.863Z,98226.38
2023-03-13T00:49:57.599Z,98230.16
2023-03-13T00:52:25.047Z,98234.44
2023-03-13T00:54:51.900Z,98221.13
2023-03-13T00:57:18.957Z,98218.34
2023-03-13T00:59:45.709Z,98216.75
2023-03-13T01:02:12.889Z,98215.03
2023-03-13T01:04:39.781Z,98224.69
2023-03-13T01:07:06.388Z,98226.38
2023-03-13T01:09:33.645Z,98230.16
2023-03-13T01:12:00.453Z,98235.41
2023-03-13T01:14:27.547Z,98241.84
2023-03-13T01:16:54.335Z,98234.78
2023-03-13T01:19:21.391Z,98245.72
2023-03-13T01:21:48.425Z,98246.34
2023-03-13T01:24:16.876Z,98243.56
2023-03-13T01:26:43.719Z,98235.41
2023-03-13T01:29:10.805Z,98250.72
2023-03-13T01:31:37.695Z,98250.00
2023-03-13T01:34:05.276Z,98247.31
2023-03-13T01:36:32.093Z,98245.50
2023-03-13T01:39:00.127Z,98248.06
2023-03-13T01:41:27.382Z,98248.72
2023-03-13T01:43:55.618Z,98244.53
2023-03-13T01:46:27.810Z,98235.41
2023-03-13T01:49:14.979Z,98235.31
2023-03-13T01:51:48.126Z,98236.16
2023-03-13T01:54:27.548Z,98228.31
2023-03-13T01:56:55.605Z,98236.25
2023-03-13T01:59:27.040Z,98236.25
2023-03-13T02:01:55.591Z,98235.31
2023-03-13T02:04:22.828Z,98235.31
2023-03-13T02:06:50.796Z,98234.31
2023-03-13T02:09:22.941Z,98246.13
2023-03-13T02:12:10.141Z,98242.25
2023-03-13T02:14:38.314Z,98251.91
2023-03-13T02:17:05.723Z,98256.50
2023-03-13T02:19:38.300Z,98259.19
2023-03-13T02:22:26.428Z,98253.09
2023-03-13T02:25:05.593Z,98256.50
2023-03-13T02:27:32.333Z,98254.38
2023-03-13T02:29:59.673Z,98256.50
2023-03-13T02:32:27.377Z,98257.28
2023-03-13T02:34:56.401Z,98256.19
2023-03-13T02:37:23.813Z,98252.44
2023-03-13T02:39:50.857Z,98256.06
2023-03-13T02:42:18.649Z,98263.28
2023-03-13T02:44:46.615Z,98261.44
2023-03-13T02:47:18.443Z,98262.41
2023-03-13T02:49:45.477Z,98268.53
2023-03-13T02:52:24.959Z,98266.56
2023-03-13T02:54:55.185Z,98264.97
2023-03-13T02:57:22.022Z,98270.47
2023-03-13T02:59:49.082Z,98269.38
2023-03-13T03:02:15.910Z,98273.78
2023-03-13T03:04:43.006Z,98268.53
2023-03-13T03:07:09.750Z,98272.78
2023-03-13T03:09:36.821Z,98278.78
2023-03-13T03:12:03.693Z,98278.16
2023-03-13T03:14:31.072Z,98280.00
2023-03-13T03:16:57.857Z,98277.53
2023-03-13T03:19:25.119Z,98285.25
2023-03-13T03:21:51.870Z,98276.22
2023-03-13T03:24:18.933Z,98273.53
2023-03-13T03:26:45.893Z,98268.06
2023-03-13T03:29:12.973Z,98270.72
2023-03-13T03:31:39.787Z,98268.94
2023-03-13T03:34:06.880Z,98275.03
2023-03-13T03:36:33.665Z,98263.47
2023-03-13T03:39:00.783Z,98260.53
2023-03-13T03:41:27.546Z,98257.97
2023-03-13T03:43:54.698Z,98256.03
2023-03-13T03:46:21.546Z,98263.09
2023-03-13T03:48:48.654Z,98260.53
2023-03-13T03:51:15.436Z,98260.19
2023-03-13T03:53:42.766Z,98257.63
2023-03-13T03:56:09.589Z,98246.88
2023-03-13T03:58:36.674Z,98241.53
2023-03-13T04:01:03.819Z,98245.81
2023-03-13T04:03:31.032Z,98246.66
2023-03-13T04:05:57.900Z,98239.72
2023-03-13T04:08:25.011Z,98239.13
2023-03-13T04:10:51.965Z,98244.84
2023-03-13T04:13:19.029Z,98235.09
2023-03-13T04:15:45.858Z,98226.81
2023-03-13T04:18:13.040Z,98232.69
2023-03-13T04:20:39.859Z,98234.97
2023-03-13T04:23:06.960Z,98236.16
2023-03-13T04:25:33.756Z,98235.31
2023-03-13T04:28:00.825Z,98236.03
2023-03-13T04:30:27.738Z,98243.66
2023-03-13T04:32:54.949Z,98232.91
2023-03-13T04:35:21.772Z,98233.66
2023-03-13T04:37:48.883Z,98230.75
2023-03-13T04:40:15.723Z,98233.25
2023-03-13T04:42:42.842Z,98233.03
2023-03-13T04:45:12.886Z,98231.66
2023-03-13T04:47:40.024Z,98230.56
2023-03-13T04:50:07.090Z,98223.75
2023-03-13T04:52:34.182Z,98223.91
2023-03-13T04:55:01.017Z,98227.66
2023-03-13T04:57:28.228Z,98226.81
2023-03-13T04:59:55.080Z,98234.75
2023-03-13T05:02:22.268Z,98223.03
2023-03-13T05:04:51.139Z,98226.81
2023-03-13T05:07:19.229Z,98229.03
2023-03-13T05:09:45.984Z,98224.25
2023-03-13T05:12:13.059Z,98225.31
2023-03-13T05:14:39.813Z,98229.38
2023-03-13T05:17:06.927Z,98236.66
2023-03-13T05:19:33.739Z,98248.78
2023-03-13T05:22:00.798Z,98243.09
2023-03-13T05:24:27.599Z,98238.16
2023-03-13T05:26:54.642Z,98233.53
2023-03-13T05:29:21.428Z,98227.44
2023-03-13T05:31:48.490Z,98228.28
2023-03-13T05:34:15.287Z,98234.75
2023-03-13T05:36:42.360Z,98226.81
2023-03-13T05:39:09.178Z,98221.22
2023-03-13T05:41:36.256Z,98217.88
2023-03-13T05:44:03.030Z,98211.56
2023-03-13T05:46:31.094Z,98220.56
2023-03-13T05:48:57.892Z,98219.72
2023-03-13T05:51:25.018Z,98222.28
2023-03-13T05:53:51.725Z,98226.22
2023-03-13T05:56:18.766Z,98216.09
2023-03-13T05:58:45.520Z,98214.09
2023-03-13T06:01:13.260Z,98217.00
2023-03-13T06:03:40.230Z,98212.59
2023-03-13T06:06:07.633Z,98205.25
2023-03-13T06:08:34.409Z,98214.41
2023-03-13T06:11:02.080Z,98206.25
2023-03-13T06:13:29.113Z,98211.41
2023-03-13T06:15:57.020Z,98215.03
2023-03-13T06:18:23.854Z,98209.34
2023-03-13T06:20:57.988Z,98209.34
2023-03-13T06:23:24.932Z,98207.38
2023-03-13T06:25:52.037Z,98205.78
2023-03-13T06:28:18.804Z,98202.25
2023-03-13T06:30:45.856Z,98202.25
2023-03-13T06:33:12.856Z,98191.50
2023-03-13T06:35:55.077Z,98200.28
2023-03-13T06:38:24.465Z,98199.94
2023-03-13T06:40:51.683Z,98192.63
2023-03-13T06:43:18.795Z,98196.06
2023-03-13T06:45:45.995Z,98191.22
2023-03-13T06:48:12.782Z,98192.91
2023-03-13T06:50:40.315Z,98181.94
2023-03-13T06:53:07.201Z,98181.81
2023-03-13T06:55:34.270Z,98188.66
2023-03-13T06:58:01.043Z,98185.72
2023-03-13T07:00:28.295Z,98184.78
2023-03-13T07:02:55.468Z,98181.97
2023-03-13T07:05:22.669Z,98175.50
2023-03-13T07:07:49.465Z,98168.19
2023-03-13T07:10:16.811Z,98162.44
2023-03-13T07:12:44.545Z,98167.59
2023-03-13T07:15:11.702Z,98160.91
2023-03-13T07:17:38.538Z,98161.50
2023-03-13T07:20:07.550Z,98156.97
2023-03-13T07:22:34.311Z,98161.78
2023-03-13T07:25:01.488Z,98157.75
2023-03-13T07:27:28.401Z,98160.94
2023-03-13T07:29:55.528Z,98155.31
2023-03-13T07:32:22.632Z,98147.63
2023-03-13T07:34:49.826Z,98145.19
2023-03-13T07:37:16.808Z,98135.75
2023-03-13T07:39:44.051Z,98147.88
2023-03-13T07:42:11.926Z,98136.47
2023-03-13T07:44:38.999Z,98136.34
2023-03-13T07:47:06.846Z,98139.28
2023-03-13T07:49:36.018Z,98134.38
2023-03-13T07:52:02.789Z,98132.16
2023-03-13T07:54:29.853Z,98141.56
2023-03-13T07:56:56.607Z,98131.91
2023-03-13T07:59:23.719Z,98147.78
2023-03-13T08:01:50.615Z,98147.97
2023-03-13T08:04:17.730Z,98142.09
2023-03-13T08:06:44.483Z,98150.63
2023-03-13T08:09:11.624Z,98150.72
2023-03-13T08:11:40.343Z,98147.13
2023-03-13T08:14:07.482Z,98147.75
2023-03-13T08:16:34.942Z,98131.31
2023-03-13T08:19:05.124Z,98137.16
2023-03-13T08:21:33.850Z,98136.06
2023-03-13T08:24:04.999Z,98138.38
2023-03-13T08:26:31.900Z,98131.84
2023-03-13T08:29:00.472Z,98135.78
2023-03-13T08:31:32.010Z,98130.59
2023-03-13T08:33:59.505Z,98130.03
2023-03-13T08:36:34.105Z,98126.44
2023-03-13T08:39:03.739Z,98124.59
2023-03-13T08:41:32.342Z,98136.41
2023-03-13T08:43:59.472Z,98135.03
2023-03-13T08:46:26.439Z,98110.66
2023-03-13T08:48:54.444Z,98115.22
2023-03-13T08:51:23.045Z,98115.09
2023-03-13T08:53:50.397Z,98109.75
2023-03-13T08:56:19.386Z,98107.19
2023-03-13T08:58:53.644Z,98102.41
2023-03-13T09:01:21.010Z,98098.28
2023-03-13T09:03:48.142Z,98086.41
2023-03-13T09:06:14.982Z,98103.16
2023-03-13T09:08:42.107Z,98096.91
2023-03-13T09:11:14.082Z,98090.28
2023-03-13T09:13:44.626Z,98095.22
2023-03-13T09:16:13.834Z,98098.22
2023-03-13T09:18:41.274Z,98090.56
2023-03-13T09:21:09.931Z,98082.63
2023-03-13T09:23:37.036Z,98076.53
2023-03-13T09:26:04.141Z,98085.03
2023-03-13T09:28:31.294Z,98076.53
2023-03-13T09:31:06.896Z,98076.13
2023-03-13T09:33:34.086Z,98071.19
2023-03-13T09:36:00.891Z,98065.22
2023-03-13T09:38:27.999Z,98071.31
2023-03-13T09:41:05.699Z,98059.97
2023-03-13T09:43:40.971Z,98060.81
2023-03-13T09:46:12.339Z,98054.25
2023-03-13T09:48:41.962Z,98046.72
2023-03-13T09:51:13.815Z,98046.28
2023-03-13T09:53:43.316Z,98053.28
2023-03-13T09:56:31.261Z,98054.53
2023-03-13T09:59:00.638Z,98036.03
2023-03-13T10:01:29.840Z,98033.34
2023-03-13T10:04:18.599Z,98031.19
2023-03-13T10:06:45.401Z,98037.00
2023-03-13T10:09:26.570Z,98041.13
2023-03-13T10:11:56.549Z,98042.25
2023-03-13T10:14:31.949Z,98044.97
2023-03-13T10:17:22.424Z,98034.56
2023-03-13T10:19:55.795Z,98028.03
2023-03-13T10:22:26.126Z,98018.47
2023-03-13T10:24:58.826Z,98009.53
2023-03-13T10:27:25.686Z,98005.50
2023-03-13T10:29:52.835Z,97995.56
2023-03-13T10:32:20.817Z,98008.19
2023-03-13T10:34:57.238Z,97992.50
2023-03-13T10:37:40.405Z,97983.56
2023-03-13T10:40:20.350Z,97982.72
2023-03-13T10:42:47.130Z,97978.25
2023-03-13T10:45:16.497Z,97974.53
2023-03-13T10:47:43.341Z,97965.13
2023-03-13T10:50:24.553Z,97962.44
2023-03-13T10:52:51.377Z,97959.44
2023-03-13T10:55:20.298Z,97946.22
2023-03-13T10:58:00.910Z,97930.53
2023-03-13T11:00:34.963Z,97924.16
2023-03-13T11:03:18.585Z,97913.22
2023-03-13T11:05:58.056Z,97914.63
2023-03-13T11:08:26.392Z,97916.19
2023-03-13T11:11:00.466Z,97917.56
2023-03-13T11:13:37.262Z,97912.00
2023-03-13T11:16:21.308Z,97907.91
2023-03-13T11:18:54.286Z,97909.44
2023-03-13T11:21:25.881Z,97913.19
2023-03-13T11:24:04.642Z,97906.06
2023-03-13T11:26:33.978Z,97903.06
2023-03-13T11:29:04.723Z,97891.94
2023-03-13T11:31:32.881Z,97898.03
2023-03-13T11:34:12.852Z,97890.91
2023-03-13T11:36:52.636Z,97886.53
2023-03-13T11:39:37.777Z,97884.44
2023-03-13T11:42:10.829Z,97887.13
2023-03-13T11:44:46.900Z,97878.72
2023-03-13T11:47:51.730Z,97870.63
2023-03-13T11:50:24.510Z,97861.09
2023-03-13T11:52:55.673Z,97865.06
2023-03-13T11:55:46.329Z,97869.28
2023-03-13T11:58:22.525Z,97863.19
2023-03-13T12:01:03.122Z,97870.16
2023-03-13T12:03:48.649Z,97868.44
2023-03-13T12:06:28.247Z,97861.81
2023-03-13T12:09:12.795Z,97856.06
2023-03-13T12:11:43.838Z,97856.06
2023-03-13T12:14:16.315Z,97850.84
2023-03-13T12:16:49.225Z,97855.53
2023-03-13T12:19:20.431Z,97841.47
2023-03-13T12:21:49.852Z,97841.78
2023-03-13T12:24:33.133Z,97849.06
2023-03-13T12:27:02.693Z,97848.97
2023-03-13T12:29:54.198Z,97849.13
2023-03-13T12:32:38.863Z,97844.59
2023-03-13T12:35:09.166Z,97835.22
2023-03-13T12:37:50.558Z,97834.59
2023-03-13T12:40:25.990Z,97824.56
2023-03-13T12:43:05.363Z,97844.50
2023-03-13T12:45:32.754Z,97842.84
2023-03-13T12:48:22.040Z,97843.13
2023-03-13T12:51:10.946Z,97844.31
2023-03-13T12:53:37.802Z,97842.06
2023-03-13T12:56:16.178Z,97842.50
2023-03-13T12:58:50.114Z,97834.69
2023-03-13T13:01:22.267Z,97841.41
2023-03-13T13:03:52.788Z,97845.09
2023-03-13T13:06:20.096Z,97845.44
2023-03-13T13:08:53.095Z,97844.56
2023-03-13T13:11:38.886Z,97848.41
2023-03-13T13:14:11.679Z,97853.28
2023-03-13T13:16:42.130Z,97846.75
2023-03-13T13:19:40.698Z,97847.63
2023-03-13T13:22:38.977Z,97835.81
2023-03-13T13:25:18.223Z,97833.13
2023-03-13T13:27:46.184Z,97831.16
2023-03-13T13:30:18.909Z,97826.34
2023-03-13T13:32:50.284Z,97821.66
2023-03-13T13:35:31.118Z,97818.16
2023-03-13T13:38:20.122Z,97813.28
2023-03-13T13:41:11.783Z,97826.25
2023-03-13T13:43:42.992Z,97817.44
2023-03-13T13:46:23.278Z,97812.19
2023-03-13T13:49:05.829Z,97804.25
2023-03-13T13:51:42.400Z,97806.25
2023-03-13T13:54:12.537Z,97801.69
2023-03-13T13:56:42.443Z,97791.03
2023-03-13T13:59:22.739Z,97779.69
2023-03-13T14:01:50.766Z,97766.31
2023-03-13T14:04:28.578Z,97771.16
2023-03-13T14:06:55.940Z,97758.81
2023-03-13T14:09:47.407Z,97763.22
2023-03-13T14:12:25.121Z,97762.94
2023-03-13T14:15:20.586Z,97763.38
2023-03-13T14:17:51.589Z,97758.66
2023-03-13T14:20:24.596Z,97769.91
2023-03-13T14:22:51.554Z,97769.59
2023-03-13T14:25:18.691Z,97759.84
2023-03-13T14:27:46.180Z,97742.63
2023-03-13T14:30:14.960Z,97747.88
2023-03-13T14:32:41.778Z,97740.06
2023-03-13T14:35:10.650Z,97730.84
2023-03-13T14:37:47.864Z,97741.63
2023-03-13T14:40:17.951Z,97747.03
2023-03-13T14:42:50.145Z,97746.78
2023-03-13T14:45:24.321Z,97753.16
2023-03-13T14:47:51.893Z,97747.63
2023-03-13T14:50:18.982Z,97748.31
2023-03-13T14:52:49.078Z,97754.44
2023-03-13T14:55:22.564Z,97744.63
2023-03-13T14:57:57.083Z,97748.88
2023-03-13T15:00:40.308Z,97756.66
2023-03-13T15:03:21.411Z,97742.31
2023-03-13T15:06:10.256Z,97729.84
2023-03-13T15:08:44.812Z,97728.69
2023-03-13T15:11:20.298Z,97721.56
2023-03-13T15:13:47.177Z,97718.88
2023-03-13T15:16:16.385Z,97713.66
2023-03-13T15:18:43.211Z,97718.72
2023-03-13T15:21:12.999Z,97717.75
2023-03-13T15:23:47.297Z,97705.25
2023-03-13T15:26:14.406Z,97711.38
2023-03-13T15:28:41.227Z,97712.22
2023-03-13T15:31:10.545Z,97700.28
2023-03-13T15:33:37.308Z,97697.75
2023-03-13T15:36:04.851Z,97707.69
2023-03-13T15:38:31.770Z,97720.19
2023-03-13T15:40:58.898Z,97711.94
2023-03-13T15:43:26.268Z,97715.31
2023-03-13T15:45:53.436Z,97724.25
2023-03-13T15:48:28.074Z,97734.38
2023-03-13T15:50:58.473Z,97744.47
2023-03-13T15:53:26.082Z,97737.22
2023-03-13T15:55:54.144Z,97749.72
2023-03-13T15:58:21.063Z,97744.31
2023-03-13T16:00:51.049Z,97745.16
2023-03-13T16:03:24.840Z,97745.16
2023-03-13T16:05:52.572Z,97745.84
2023-03-13T16:08:34.731Z,97732.34
2023-03-13T16:11:02.580Z,97732.50
2023-03-13T16:13:29.543Z,97723.44
2023-03-13T16:15:56.796Z,97720.03
2023-03-13T16:18:24.134Z,97711.06
2023-03-13T16:20:51.877Z,97714.63
2023-03-13T16:23:18.715Z,97710.78
2023-03-13T16:25:46.096Z,97701.97
2023-03-13T16:28:13.308Z,97706.25
2023-03-13T16:30:41.542Z,97695.44
2023-03-13T16:33:08.411Z,97683.94
2023-03-13T16:35:35.662Z,97678.38
2023-03-13T16:38:02.762Z,97671.16
2023-03-13T16:40:31.913Z,97665.59
2023-03-13T16:42:58.765Z,97662.03
2023-03-13T16:45:26.018Z,97667.88
2023-03-13T16:47:53.503Z,97671.00
2023-03-13T16:50:25.097Z,97664.75
2023-03-13T16:52:52.111Z,97656.50
2023-03-13T16:55:19.424Z,97648.84
2023-03-13T16:57:46.329Z,97639.22
2023-03-13T17:00:21.481Z,97643.78
2023-03-13T17:02:48.738Z,97638.38
2023-03-13T17:05:16.217Z,97628.56
2023-03-13T17:07:44.624Z,97620.72
2023-03-13T17:10:25.083Z,97617.06
2023-03-13T17:12:51.977Z,97626.44
2023-03-13T17:15:20.184Z,97626.13
2023-03-13T17:17:51.895Z,97621.25
2023-03-13T17:20:21.164Z,97631.03
2023-03-13T17:22:47.945Z,97610.91
2023-03-13T17:25:15.201Z,97605.59
2023-03-13T17:27:42.901Z,97605.59
2023-03-13T17:30:22.832Z,97594.25
2023-03-13T17:32:50.328Z,97612.47
2023-03-13T17:35:17.732Z,97598.97
2023-03-13T17:37:45.032Z,97602.66
2023-03-13T17:40:23.255Z,97602.13
2023-03-13T17:42:50.267Z,97600.25
2023-03-13T17:45:17.782Z,97606.38
2023-03-13T17:47:44.694Z,97615.91
2023-03-13T17:50:16.308Z,97622.19
2023-03-13T17:52:43.189Z,97612.38
2023-03-13T17:55:10.566Z,97601.59
2023-03-13T17:57:37.585Z,97599.16
2023-03-13T18:00:09.418Z,97584.97
2023-03-13T18:02:36.755Z,97577.16
2023-03-13T18:05:04.382Z,97576.47
2023-03-13T18:07:31.194Z,97564.66
2023-03-13T18:09:58.265Z,97569.47
2023-03-13T18:12:25.114Z,97568.38
2023-03-13T18:14:52.190Z,97564.91
2023-03-13T18:17:20.736Z,97575.16
2023-03-13T18:19:48.191Z,97562.38
2023-03-13T18:22:19.616Z,97576.72
2023-03-13T18:24:46.796Z,97579.72
2023-03-13T18:27:15.959Z,97584.13
2023-03-13T18:29:43.593Z,97570.78
2023-03-13T18:32:11.143Z,97571.63
2023-03-13T18:34:38.372Z,97574.34
2023-03-13T18:37:11.418Z,97561.16
2023-03-13T18:39:38.569Z,97554.03
2023-03-13T18:42:07.082Z,97557.75
2023-03-13T18:44:34.179Z,97561.59
2023-03-13T18:47:00.967Z,97560.44
2023-03-13T18:49:28.037Z,97546.66
2023-03-13T18:51:54.828Z,97545.41
2023-03-13T18:54:21.902Z,97539.03
2023-03-13T18:56:48.701Z,97537.16
2023-03-13T18:59:18.382Z,97548.09
2023-03-13T19:01:47.141Z,97545.56
2023-03-13T19:04:15.590Z,97540.88
2023-03-13T19:06:42.543Z,97545.56
2023-03-13T19:09:42.668Z,97542.84
2023-03-13T19:12:11.628Z,97544.72
2023-03-13T19:14:38.916Z,97536.09
2023-03-13T19:17:07.192Z,97537.94
2023-03-13T19:19:34.471Z,97529.84
2023-03-13T19:22:02.117Z,97538.09
2023-03-13T19:24:29.312Z,97530.69
2023-03-13T19:26:59.174Z,97541.78
2023-03-13T19:29:27.662Z,97539.94
2023-03-13T19:31:59.213Z,97549.88
2023-03-13T19:34:26.321Z,97550.03
2023-03-13T19:36:53.476Z,97549.34
2023-03-13T19:39:23.659Z,97540.13
2023-03-13T19:41:50.763Z,97539.38
2023-03-13T19:44:18.455Z,97540.25
2023-03-13T19:46:45.648Z,97528.44
2023-03-13T19:49:14.410Z,97529.63
2023-03-13T19:51:41.282Z,97520.50
2023-03-13T19:54:10.794Z,97516.97
2023-03-13T19:56:39.252Z,97502.50
2023-03-13T19:59:20.303Z,97503.19
2023-03-13T20:01:47.237Z,97491.72
2023-03-13T20:04:14.432Z,97474.66
2023-03-13T20:06:41.514Z,97483.03
2023-03-13T20:09:10.444Z,97477.66
2023-03-13T20:11:37.370Z,97480.19
2023-03-13T20:14:04.789Z,97483.75
2023-03-13T20:16:33.716Z,97476.97
2023-03-13T20:19:01.516Z,97478.66
2023-03-13T20:21:33.533Z,97467.19
2023-03-13T20:24:00.643Z,97457.41
2023-03-13T20:26:28.086Z,97451.00
2023-03-13T20:28:55.447Z,97459.25
2023-03-13T20:31:24.162Z,97453.72
2023-03-13T20:33:51.526Z,97448.63
2023-03-13T20:36:19.632Z,97451.63
2023-03-13T20:38:47.007Z,97444.53
2023-03-13T20:41:14.213Z,97449.22
2023-03-13T20:43:41.334Z,97447.38
2023-03-13T20:46:08.329Z,97435.75
2023-03-13T20:48:37.108Z,97440.31
2023-03-13T20:51:04.099Z,97420.75
2023-03-13T20:53:31.238Z,97432.38
2023-03-13T20:55:58.362Z,97428.84
2023-03-13T20:58:25.523Z,97419.03
2023-03-13T21:00:52.470Z,97409.25
2023-03-13T21:03:19.619Z,97407.56
2023-03-13T21:05:46.380Z,97408.03
2023-03-13T21:08:13.726Z,97417.97
2023-03-13T21:10:40.968Z,97421.50
2023-03-13T21:13:09.139Z,97424.19
2023-03-13T21:15:36.063Z,97433.28
2023-03-13T21:18:03.354Z,97423.66
2023-03-13T21:20:30.166Z,97422.63
2023-03-13T21:22:57.303Z,97422.81
2023-03-13T21:25:24.174Z,97413.34
2023-03-13T21:27:51.320Z,97411.31
2023-03-13T21:30:19.943Z,97409.78
2023-03-13T21:32:47.610Z,97409.94
2023-03-13T21:35:14.641Z,97402.84
2023-03-13T21:37:41.869Z,97401.31
2023-03-13T21:40:09.690Z,97392.22
2023-03-13T21:42:38.680Z,97384.44
2023-03-13T21:45:06.086Z,97387.31
2023-03-13T21:47:36.981Z,97381.91
2023-03-13T21:50:05.636Z,97370.44
2023-03-13T21:52:38.149Z,97378.66
2023-03-13T21:55:08.390Z,97374.28
2023-03-13T21:57:36.817Z,97353.88
2023-03-13T22:00:06.411Z,97349.50
2023-03-13T22:02:34.693Z,97342.84
2023-03-13T22:05:02.546Z,97337.63
2023-03-13T22:07:30.936Z,97335.78
2023-03-13T22:09:58.134Z,97328.16
2023-03-13T22:12:25.711Z,97337.38
2023-03-13T22:14:52.833Z,97331.84
2023-03-13T22:17:20.439Z,97321.56
2023-03-13T22:19:47.261Z,97312.16
2023-03-13T22:22:14.902Z,97307.59
2023-03-13T22:24:41.704Z,97303.53
2023-03-13T22:27:11.584Z,97303.69
2023-03-13T22:29:38.418Z,97299.28
2023-03-13T22:32:05.625Z,97288.50
2023-03-13T22:34:32.446Z,97293.59
2023-03-13T22:36:59.644Z,97286.84
2023-03-13T22:39:26.438Z,97289.22
2023-03-13T22:41:53.535Z,97285.13
2023-03-13T22:44:21.633Z,97292.38
2023-03-13T22:46:48.755Z,97286.13
2023-03-13T22:49:15.576Z,97280.91
2023-03-13T22:51:42.629Z,97279.34
2023-03-13T22:54:09.423Z,97264.03
2023-03-13T22:56:36.878Z,97262.50
2023-03-13T22:59:03.749Z,97261.50
2023-03-13T23:01:30.924Z,97266.19
2023-03-13T23:03:57.747Z,97257.44
2023-03-13T23:06:25.577Z,97281.53
2023-03-13T23:08:52.617Z,97292.44
2023-03-13T23:11:20.096Z,97306.59
2023-03-13T23:13:47.045Z,97294.84
2023-03-13T23:16:14.818Z,97293.97
2023-03-13T23:18:41.854Z,97296.66
2023-03-13T23:21:10.851Z,97287.75
2023-03-13T23:23:37.887Z,97286.22
2023-03-13T23:26:06.734Z,97278.97
2023-03-13T23:28:34.533Z,97269.19
2023-03-13T23:31:19.057Z,97266.50
2023-03-13T23:33:46.177Z,97262.13
2023-03-13T23:36:15.220Z,97259.44
2023-03-13T23:38:42.212Z,97252.19
2023-03-13T23:41:10.930Z,97226.59
2023-03-13T23:43:37.825Z,97233.50
2023-03-13T23:46:05.329Z,97215.97
2023-03-13T23:48:32.180Z,97207.16
2023-03-13T23:50:59.275Z,97200.94
2023-03-13T23:53:26.065Z,97190.31
2023-03-13T23:55:58.324Z,97180.88
2023-03-13T23:58:25.294Z,97166.69
